EDT,Max TemperatureF,Mean TemperatureF,Min TemperatureF,Max Dew PointF,MeanDew PointF,Min DewpointF,Max Humidity, Mean Humidity, Min Humidity, Max Sea Level PressureIn, Mean Sea Level PressureIn, Min Sea Level PressureIn, Max VisibilityMiles, Mean VisibilityMiles, Min VisibilityMiles, Max Wind SpeedMPH, Mean Wind SpeedMPH, Max Gust SpeedMPH,PrecipitationIn, CloudCover, Events, WindDirDegrees
2013-5-1,57,50,42,46,42,36,87,71,47,30.49,30.42,30.33,10,10,10,15,7,23,0.00,0,,60
2013-5-2,64,52,41,46,42,37,100,67,39,30.47,30.42,30.35,10,10,10,10,5,,0.00,0,,95
2013-5-3,55,50,46,46,42,36,93,70,47,30.46,30.41,30.37,10,10,10,18,9,25,0.00,2,,88
2013-5-4,59,50,42,46,42,39,100,74,48,30.37,30.30,30.27,10,10,8,16,6,23,0.00,0,,66
2013-5-5,53,48,44,45,40,36,93,72,58,30.30,30.26,30.24,10,10,10,15,9,21,0.00,5,,81
2013-5-6,57,52,46,50,46,45,100,84,67,30.27,30.22,30.17,10,9,1,14,8,17,0.00,8,,71
2013-5-7,60,54,48,57,52,46,100,93,77,30.17,30.13,30.09,10,7,0,13,7,18,0.01,8,,64
2013-5-8,68,62,55,63,56,50,100,89,63,30.09,30.02,29.97,10,9,1,17,9,23,1.10,5,Thunderstorm,122
2013-5-9,69,61,53,59,55,52,100,82,56,30.00,29.94,29.91,10,9,2,14,4,,0.51,6,,254
2013-5-10,80,68,55,59,56,52,100,73,37,30.01,29.97,29.90,10,9,2,13,6,16,0.00,0,,215
2013-5-11,75,68,62,66,62,55,100,91,65,29.92,29.81,29.71,10,8,2,14,7,23,0.90,6,Thunderstorm,202
2013-5-12,68,60,51,64,43,27,100,59,26,29.97,29.77,29.69,10,10,1,25,10,32,0.04,3,,280
2013-5-13,57,49,41,34,29,23,70,46,30,30.11,30.04,29.97,10,10,10,21,9,28,0.00,2,,283
2013-5-14,60,48,37,43,30,23,81,51,23,30.15,30.10,30.05,10,10,2,16,7,22,0.05,0,,291
2013-5-15,73,60,46,57,49,30,82,67,42,30.10,29.90,29.71,10,10,7,17,7,26,0.00,3,,192
2013-5-16,78,68,57,61,54,45,94,66,36,29.85,29.79,29.72,10,10,8,13,5,17,0.00,2,,236
2013-5-17,73,64,55,61,42,37,88,46,27,30.21,30.06,29.85,10,10,10,17,7,22,0.00,0,,305
2013-5-18,64,58,51,55,52,46,100,80,64,30.33,30.29,30.21,10,10,6,12,3,,0.01,7,,128
2013-5-19,57,56,55,57,55,54,100,96,94,30.31,30.25,30.17,10,4,0,16,8,22,0.30,8,,127
2013-5-20,77,67,57,70,64,57,100,92,78,30.18,30.07,29.99,10,5,0,8,2,,0.01,6,,212
2013-5-21,86,75,64,70,67,63,100,79,51,30.00,29.94,29.87,10,8,0,14,7,17,0.00,3,,233
2013-5-22,82,74,66,73,69,64,100,87,70,29.94,29.90,29.85,10,7,1,10,6,,0.00,4,,214
2013-5-23,80,73,66,72,66,64,94,83,61,29.92,29.87,29.78,10,10,7,17,10,29,0.17,6,Thunderstorm,198
2013-5-24,66,55,44,64,54,41,100,93,81,29.97,29.82,29.71,10,10,3,21,9,28,0.16,8,,293
2013-5-25,57,50,42,45,40,34,100,70,44,30.03,29.96,29.92,10,10,9,29,16,44,0.05,7,,306
2013-5-26,69,58,46,37,35,30,71,45,25,30.21,30.07,30.00,10,10,10,24,12,32,0.00,1,,300
2013-5-27,73,58,44,45,38,36,76,46,25,30.27,30.22,30.15,10,10,10,15,5,20,0.00,0,,259
2013-5-28,66,60,53,61,53,45,100,80,46,30.24,30.19,30.13,10,8,1,10,4,17,0.47,5,,186
2013-5-29,89,74,59,70,63,57,100,74,40,30.13,30.08,30.04,10,9,3,14,5,20,0.00,1,,237
2013-5-30,93,81,69,70,65,61,83,59,36,30.16,30.12,30.08,10,10,10,13,8,16,0.00,0,,254
2013-5-31,91,80,69,70,67,64,88,65,41,30.15,30.10,30.03,10,10,10,13,6,17,0.00,0,,214